sensor_id;sensor_type;location;lat;lon;timestamp;temperature;humidity
70820;DHT22;58439;51.046;13.692;2023-06-22T00:01:01;21.90;95.30
70820;DHT22;58439;51.046;13.692;2023-06-22T00:03:56;21.90;95.40
70820;DHT22;58439;51.046;13.692;2023-06-22T00:06:55;21.70;95.70
70820;DHT22;58439;51.046;13.692;2023-06-22T00:09:36;21.70;96.00
70820;DHT22;58439;51.046;13.692;2023-06-22T00:12:18;21.60;96.30
70820;DHT22;58439;51.046;13.692;2023-06-22T00:14:56;21.60;96.50
70820;DHT22;58439;51.046;13.692;2023-06-22T00:17:45;21.50;96.50
70820;DHT22;58439;51.046;13.692;2023-06-22T00:20:34;21.50;96.60
70820;DHT22;58439;51.046;13.692;2023-06-22T00:23:14;21.40;96.90
70820;DHT22;58439;51.046;13.692;2023-06-22T00:29:55;21.30;97.20
70820;DHT22;58439;51.046;13.692;2023-06-22T00:32:39;21.30;97.00
70820;DHT22;58439;51.046;13.692;2023-06-22T00:35:18;21.30;97.10
70820;DHT22;58439;51.046;13.692;2023-06-22T00:37:52;21.30;97.20
70820;DHT22;58439;51.046;13.692;2023-06-22T00:40:32;21.40;97.30
70820;DHT22;58439;51.046;13.692;2023-06-22T00:43:08;21.30;97.20
70820;DHT22;58439;51.046;13.692;2023-06-22T00:45:50;21.30;97.40
70820;DHT22;58439;51.046;13.692;2023-06-22T00:48:27;21.20;97.70
70820;DHT22;58439;51.046;13.692;2023-06-22T00:51:06;21.20;97.80
70820;DHT22;58439;51.046;13.692;2023-06-22T00:53:55;21.20;97.90
70820;DHT22;58439;51.046;13.692;2023-06-22T00:56:40;21.20;98.00
70820;DHT22;58439;51.046;13.692;2023-06-22T00:59:14;21.20;98.10
70820;DHT22;58439;51.046;13.692;2023-06-22T01:01:50;21.20;98.30
70820;DHT22;58439;51.046;13.692;2023-06-22T01:04:34;21.20;98.10
70820;DHT22;58439;51.046;13.692;2023-06-22T01:07:35;21.20;97.90
70820;DHT22;58439;51.046;13.692;2023-06-22T01:10:23;21.30;97.80
70820;DHT22;58439;51.046;13.692;2023-06-22T01:13:04;21.20;97.90
70820;DHT22;58439;51.046;13.692;2023-06-22T01:16:03;21.20;98.10
70820;DHT22;58439;51.046;13.692;2023-06-22T01:18:48;21.10;98.30
70820;DHT22;58439;51.046;13.692;2023-06-22T01:21:21;21.00;98.50
70820;DHT22;58439;51.046;13.692;2023-06-22T01:30:32;20.80;99.50
70820;DHT22;58439;51.046;13.692;2023-06-22T01:33:11;20.80;99.70
70820;DHT22;58439;51.046;13.692;2023-06-22T01:35:42;20.80;99.80
70820;DHT22;58439;51.046;13.692;2023-06-22T01:38:15;20.70;99.90
70820;DHT22;58439;51.046;13.692;2023-06-22T01:40:43;20.70;99.90
70820;DHT22;58439;51.046;13.692;2023-06-22T01:43:11;20.60;99.90
70820;DHT22;58439;51.046;13.692;2023-06-22T01:45:39;20.60;99.90
70820;DHT22;58439;51.046;13.692;2023-06-22T01:48:06;20.70;99.90
70820;DHT22;58439;51.046;13.692;2023-06-22T01:50:35;20.60;99.90
70820;DHT22;58439;51.046;13.692;2023-06-22T01:53:02;20.60;99.90
70820;DHT22;58439;51.046;13.692;2023-06-22T01:55:29;20.60;99.90
70820;DHT22;58439;51.046;13.692;2023-06-22T01:57:57;20.50;99.90
70820;DHT22;58439;51.046;13.692;2023-06-22T02:00:27;20.50;99.90
70820;DHT22;58439;51.046;13.692;2023-06-22T02:03:30;20.40;99.90
70820;DHT22;58439;51.046;13.692;2023-06-22T02:06:08;20.30;99.90
70820;DHT22;58439;51.046;13.692;2023-06-22T02:08:48;20.20;99.90
70820;DHT22;58439;51.046;13.692;2023-06-22T02:11:19;20.30;99.90
70820;DHT22;58439;51.046;13.692;2023-06-22T02:13:49;20.30;99.90
70820;DHT22;58439;51.046;13.692;2023-06-22T02:16:17;20.30;99.90
70820;DHT22;58439;51.046;13.692;2023-06-22T02:18:49;20.20;99.90
70820;DHT22;58439;51.046;13.692;2023-06-22T02:21:19;20.20;99.90
70820;DHT22;58439;51.046;13.692;2023-06-22T02:23:47;20.20;99.90
70820;DHT22;58439;51.046;13.692;2023-06-22T02:26:16;20.10;99.90
70820;DHT22;58439;51.046;13.692;2023-06-22T02:28:44;20.10;99.90
70820;DHT22;58439;51.046;13.692;2023-06-22T02:31:13;20.10;99.90
70820;DHT22;58439;51.046;13.692;2023-06-22T02:33:40;20.00;99.90
70820;DHT22;58439;51.046;13.692;2023-06-22T02:36:09;20.00;99.90
70820;DHT22;58439;51.046;13.692;2023-06-22T02:38:43;19.90;99.90
70820;DHT22;58439;51.046;13.692;2023-06-22T02:41:15;19.90;99.90
70820;DHT22;58439;51.046;13.692;2023-06-22T02:43:45;19.90;99.90
70820;DHT22;58439;51.046;13.692;2023-06-22T02:46:13;19.90;99.90
70820;DHT22;58439;51.046;13.692;2023-06-22T02:48:41;19.90;99.90
70820;DHT22;58439;51.046;13.692;2023-06-22T02:51:09;19.80;99.90
70820;DHT22;58439;51.046;13.692;2023-06-22T02:53:37;19.70;99.90
70820;DHT22;58439;51.046;13.692;2023-06-22T02:56:04;19.60;99.90
70820;DHT22;58439;51.046;13.692;2023-06-22T02:58:36;19.60;99.90
70820;DHT22;58439;51.046;13.692;2023-06-22T03:01:09;19.60;99.90
70820;DHT22;58439;51.046;13.692;2023-06-22T03:03:37;19.60;99.90
70820;DHT22;58439;51.046;13.692;2023-06-22T03:06:04;19.60;99.90
70820;DHT22;58439;51.046;13.692;2023-06-22T03:08:32;19.60;99.90
70820;DHT22;58439;51.046;13.692;2023-06-22T03:10:59;19.60;99.90
70820;DHT22;58439;51.046;13.692;2023-06-22T03:13:27;19.70;99.90
70820;DHT22;58439;51.046;13.692;2023-06-22T03:15:54;19.60;99.90
70820;DHT22;58439;51.046;13.692;2023-06-22T03:18:21;19.70;99.90
70820;DHT22;58439;51.046;13.692;2023-06-22T03:20:49;19.70;99.90
70820;DHT22;58439;51.046;13.692;2023-06-22T03:23:16;19.70;99.90
70820;DHT22;58439;51.046;13.692;2023-06-22T03:25:43;19.80;99.90
70820;DHT22;58439;51.046;13.692;2023-06-22T03:28:13;19.80;99.90
70820;DHT22;58439;51.046;13.692;2023-06-22T03:30:41;19.80;99.90
70820;DHT22;58439;51.046;13.692;2023-06-22T03:33:08;19.70;99.90
70820;DHT22;58439;51.046;13.692;2023-06-22T03:35:35;19.80;99.90
70820;DHT22;58439;51.046;13.692;2023-06-22T03:38:03;19.80;99.90
70820;DHT22;58439;51.046;13.692;2023-06-22T03:40:30;19.80;99.90
70820;DHT22;58439;51.046;13.692;2023-06-22T03:42:58;19.70;99.90
70820;DHT22;58439;51.046;13.692;2023-06-22T03:45:25;19.70;99.90
70820;DHT22;58439;51.046;13.692;2023-06-22T03:47:52;19.70;99.90
70820;DHT22;58439;51.046;13.692;2023-06-22T03:50:20;19.80;99.90
70820;DHT22;58439;51.046;13.692;2023-06-22T03:52:48;19.80;99.90
70820;DHT22;58439;51.046;13.692;2023-06-22T03:55:15;19.80;99.90
70820;DHT22;58439;51.046;13.692;2023-06-22T03:57:42;19.90;99.90
70820;DHT22;58439;51.046;13.692;2023-06-22T04:00:10;19.90;99.90
70820;DHT22;58439;51.046;13.692;2023-06-22T04:02:38;20.00;99.90
70820;DHT22;58439;51.046;13.692;2023-06-22T04:05:07;20.00;99.90
70820;DHT22;58439;51.046;13.692;2023-06-22T04:07:39;20.00;99.90
70820;DHT22;58439;51.046;13.692;2023-06-22T04:10:06;20.10;99.90
70820;DHT22;58439;51.046;13.692;2023-06-22T04:12:37;20.10;99.90
70820;DHT22;58439;51.046;13.692;2023-06-22T04:15:05;20.10;99.90
70820;DHT22;58439;51.046;13.692;2023-06-22T04:17:33;20.10;99.90
70820;DHT22;58439;51.046;13.692;2023-06-22T04:20:25;20.10;99.90
70820;DHT22;58439;51.046;13.692;2023-06-22T04:23:42;20.10;99.90
70820;DHT22;58439;51.046;13.692;2023-06-22T04:26:10;20.20;99.90
70820;DHT22;58439;51.046;13.692;2023-06-22T04:28:38;20.30;99.90
70820;DHT22;58439;51.046;13.692;2023-06-22T04:31:26;20.40;99.90
70820;DHT22;58439;51.046;13.692;2023-06-22T04:34:37;20.50;99.90
70820;DHT22;58439;51.046;13.692;2023-06-22T04:37:55;20.50;99.90
70820;DHT22;58439;51.046;13.692;2023-06-22T04:41:10;20.60;99.90
70820;DHT22;58439;51.046;13.692;2023-06-22T04:43:42;20.60;99.90
70820;DHT22;58439;51.046;13.692;2023-06-22T04:46:09;20.70;99.90
70820;DHT22;58439;51.046;13.692;2023-06-22T04:48:36;20.70;99.80
70820;DHT22;58439;51.046;13.692;2023-06-22T04:51:03;20.80;99.60
70820;DHT22;58439;51.046;13.692;2023-06-22T04:53:36;20.90;99.30
70820;DHT22;58439;51.046;13.692;2023-06-22T04:56:08;20.90;99.20
70820;DHT22;58439;51.046;13.692;2023-06-22T04:58:35;21.00;98.90
70820;DHT22;58439;51.046;13.692;2023-06-22T05:01:32;21.10;98.60
70820;DHT22;58439;51.046;13.692;2023-06-22T05:04:09;21.30;98.10
70820;DHT22;58439;51.046;13.692;2023-06-22T05:06:50;21.40;97.90
70820;DHT22;58439;51.046;13.692;2023-06-22T05:09:39;21.50;97.50
70820;DHT22;58439;51.046;13.692;2023-06-22T05:12:07;21.60;97.00
70820;DHT22;58439;51.046;13.692;2023-06-22T05:14:41;21.70;97.00
70820;DHT22;58439;51.046;13.692;2023-06-22T05:17:35;21.90;96.40
70820;DHT22;58439;51.046;13.692;2023-06-22T05:20:11;22.10;96.00
70820;DHT22;58439;51.046;13.692;2023-06-22T05:26:12;22.30;95.00
70820;DHT22;58439;51.046;13.692;2023-06-22T05:28:51;22.40;94.90
70820;DHT22;58439;51.046;13.692;2023-06-22T05:31:23;22.40;94.70
70820;DHT22;58439;51.046;13.692;2023-06-22T05:33:53;22.50;94.60
70820;DHT22;58439;51.046;13.692;2023-06-22T05:36:21;22.40;94.60
70820;DHT22;58439;51.046;13.692;2023-06-22T05:38:52;22.50;94.70
70820;DHT22;58439;51.046;13.692;2023-06-22T05:41:20;22.50;94.50
70820;DHT22;58439;51.046;13.692;2023-06-22T05:43:47;22.60;94.40
70820;DHT22;58439;51.046;13.692;2023-06-22T05:46:15;22.70;94.30
70820;DHT22;58439;51.046;13.692;2023-06-22T05:48:43;22.80;94.00
70820;DHT22;58439;51.046;13.692;2023-06-22T05:51:11;22.80;93.70
70820;DHT22;58439;51.046;13.692;2023-06-22T05:53:44;22.90;93.50
70820;DHT22;58439;51.046;13.692;2023-06-22T05:56:26;23.00;93.20
70820;DHT22;58439;51.046;13.692;2023-06-22T05:59:11;23.10;93.20
70820;DHT22;58439;51.046;13.692;2023-06-22T06:01:45;23.20;92.50
70820;DHT22;58439;51.046;13.692;2023-06-22T06:04:21;23.30;92.00
70820;DHT22;58439;51.046;13.692;2023-06-22T06:06:54;23.40;91.70
70820;DHT22;58439;51.046;13.692;2023-06-22T06:09:27;23.50;91.30
70820;DHT22;58439;51.046;13.692;2023-06-22T06:11:55;23.60;91.00
70820;DHT22;58439;51.046;13.692;2023-06-22T06:14:25;23.70;90.20
70820;DHT22;58439;51.046;13.692;2023-06-22T06:16:59;23.80;89.20
70820;DHT22;58439;51.046;13.692;2023-06-22T06:19:31;23.90;88.00
70820;DHT22;58439;51.046;13.692;2023-06-22T06:21:58;24.10;87.80
70820;DHT22;58439;51.046;13.692;2023-06-22T06:24:26;24.40;86.30
70820;DHT22;58439;51.046;13.692;2023-06-22T06:26:53;24.70;83.60
70820;DHT22;58439;51.046;13.692;2023-06-22T06:29:23;24.80;81.60
70820;DHT22;58439;51.046;13.692;2023-06-22T06:31:50;24.90;79.10
70820;DHT22;58439;51.046;13.692;2023-06-22T06:34:20;24.80;78.70
70820;DHT22;58439;51.046;13.692;2023-06-22T06:36:51;24.80;78.90
70820;DHT22;58439;51.046;13.692;2023-06-22T06:39:22;24.70;78.60
70820;DHT22;58439;51.046;13.692;2023-06-22T06:42:06;24.70;78.00
70820;DHT22;58439;51.046;13.692;2023-06-22T06:44:46;24.70;78.60
70820;DHT22;58439;51.046;13.692;2023-06-22T06:47:29;24.60;79.10
70820;DHT22;58439;51.046;13.692;2023-06-22T06:50:00;24.60;79.60
70820;DHT22;58439;51.046;13.692;2023-06-22T06:52:29;24.60;79.90
70820;DHT22;58439;51.046;13.692;2023-06-22T06:54:56;24.50;80.30
70820;DHT22;58439;51.046;13.692;2023-06-22T06:57:23;24.50;79.90
70820;DHT22;58439;51.046;13.692;2023-06-22T06:59:50;24.50;79.40
70820;DHT22;58439;51.046;13.692;2023-06-22T07:02:18;24.70;77.30
70820;DHT22;58439;51.046;13.692;2023-06-22T07:04:46;24.80;76.50
70820;DHT22;58439;51.046;13.692;2023-06-22T07:07:13;25.00;75.00
70820;DHT22;58439;51.046;13.692;2023-06-22T07:09:41;25.10;74.30
70820;DHT22;58439;51.046;13.692;2023-06-22T07:12:08;25.20;73.80
70820;DHT22;58439;51.046;13.692;2023-06-22T07:14:44;25.30;72.40
70820;DHT22;58439;51.046;13.692;2023-06-22T07:17:39;25.40;71.40
70820;DHT22;58439;51.046;13.692;2023-06-22T07:20:09;25.60;69.20
70820;DHT22;58439;51.046;13.692;2023-06-22T07:22:39;25.80;67.50
70820;DHT22;58439;51.046;13.692;2023-06-22T07:25:10;26.10;65.70
70820;DHT22;58439;51.046;13.692;2023-06-22T07:28:04;26.30;64.10
70820;DHT22;58439;51.046;13.692;2023-06-22T07:30:33;26.60;62.10
70820;DHT22;58439;51.046;13.692;2023-06-22T07:33:01;26.80;60.40
70820;DHT22;58439;51.046;13.692;2023-06-22T07:35:35;26.80;59.80
70820;DHT22;58439;51.046;13.692;2023-06-22T07:38:03;26.90;59.20
70820;DHT22;58439;51.046;13.692;2023-06-22T07:40:32;26.90;58.60
70820;DHT22;58439;51.046;13.692;2023-06-22T07:43:01;27.10;57.90
70820;DHT22;58439;51.046;13.692;2023-06-22T07:45:29;27.20;55.70
70820;DHT22;58439;51.046;13.692;2023-06-22T07:47:56;27.20;55.00
70820;DHT22;58439;51.046;13.692;2023-06-22T07:50:23;27.20;54.30
70820;DHT22;58439;51.046;13.692;2023-06-22T07:52:51;27.20;55.10
70820;DHT22;58439;51.046;13.692;2023-06-22T07:55:19;27.30;54.30
70820;DHT22;58439;51.046;13.692;2023-06-22T07:58:08;27.40;53.40
70820;DHT22;58439;51.046;13.692;2023-06-22T08:01:13;27.60;52.20
70820;DHT22;58439;51.046;13.692;2023-06-22T08:03:41;27.70;51.80
70820;DHT22;58439;51.046;13.692;2023-06-22T08:06:09;27.70;51.20
70820;DHT22;58439;51.046;13.692;2023-06-22T08:08:39;27.80;51.20
70820;DHT22;58439;51.046;13.692;2023-06-22T08:11:06;28.00;50.80
70820;DHT22;58439;51.046;13.692;2023-06-22T08:13:34;28.00;49.50
70820;DHT22;58439;51.046;13.692;2023-06-22T08:16:29;28.10;48.20
70820;DHT22;58439;51.046;13.692;2023-06-22T08:19:46;28.30;47.90
70820;DHT22;58439;51.046;13.692;2023-06-22T08:22:17;28.40;47.70
70820;DHT22;58439;51.046;13.692;2023-06-22T08:25:22;28.40;47.30
70820;DHT22;58439;51.046;13.692;2023-06-22T08:27:50;28.60;46.90
70820;DHT22;58439;51.046;13.692;2023-06-22T08:30:17;28.60;45.00
70820;DHT22;58439;51.046;13.692;2023-06-22T08:33:12;28.60;44.70
70820;DHT22;58439;51.046;13.692;2023-06-22T08:36:02;28.60;44.70
70820;DHT22;58439;51.046;13.692;2023-06-22T08:38:49;28.60;44.50
70820;DHT22;58439;51.046;13.692;2023-06-22T08:41:18;28.60;43.40
70820;DHT22;58439;51.046;13.692;2023-06-22T08:43:46;28.70;43.30
70820;DHT22;58439;51.046;13.692;2023-06-22T08:46:13;28.70;43.50
70820;DHT22;58439;51.046;13.692;2023-06-22T08:48:40;28.80;43.10
70820;DHT22;58439;51.046;13.692;2023-06-22T08:51:07;28.90;41.60
70820;DHT22;58439;51.046;13.692;2023-06-22T08:53:34;29.00;40.30
70820;DHT22;58439;51.046;13.692;2023-06-22T08:56:02;29.00;40.20
70820;DHT22;58439;51.046;13.692;2023-06-22T08:58:29;29.10;40.60
70820;DHT22;58439;51.046;13.692;2023-06-22T09:00:56;29.20;40.50
70820;DHT22;58439;51.046;13.692;2023-06-22T09:03:23;29.30;39.10
70820;DHT22;58439;51.046;13.692;2023-06-22T09:05:53;29.30;39.20
70820;DHT22;58439;51.046;13.692;2023-06-22T09:08:21;29.40;39.10
70820;DHT22;58439;51.046;13.692;2023-06-22T09:10:48;29.60;38.10
70820;DHT22;58439;51.046;13.692;2023-06-22T09:13:15;29.70;37.60
70820;DHT22;58439;51.046;13.692;2023-06-22T09:15:43;29.70;37.90
70820;DHT22;58439;51.046;13.692;2023-06-22T09:18:10;29.80;37.80
70820;DHT22;58439;51.046;13.692;2023-06-22T09:20:41;29.80;37.10
70820;DHT22;58439;51.046;13.692;2023-06-22T09:23:08;29.80;36.90
70820;DHT22;58439;51.046;13.692;2023-06-22T09:25:58;30.00;36.90
70820;DHT22;58439;51.046;13.692;2023-06-22T09:28:25;30.20;36.90
70820;DHT22;58439;51.046;13.692;2023-06-22T09:30:52;30.40;36.90
70820;DHT22;58439;51.046;13.692;2023-06-22T09:33:25;30.50;36.60
70820;DHT22;58439;51.046;13.692;2023-06-22T09:35:53;30.60;36.00
70820;DHT22;58439;51.046;13.692;2023-06-22T09:38:20;30.60;36.10
70820;DHT22;58439;51.046;13.692;2023-06-22T09:40:48;30.70;36.50
70820;DHT22;58439;51.046;13.692;2023-06-22T09:43:15;30.80;36.60
70820;DHT22;58439;51.046;13.692;2023-06-22T09:45:42;30.70;36.40
70820;DHT22;58439;51.046;13.692;2023-06-22T09:48:31;30.40;36.30
70820;DHT22;58439;51.046;13.692;2023-06-22T09:51:21;30.40;37.00
70820;DHT22;58439;51.046;13.692;2023-06-22T09:53:55;30.40;36.90
70820;DHT22;58439;51.046;13.692;2023-06-22T09:56:29;30.50;36.70
70820;DHT22;58439;51.046;13.692;2023-06-22T09:59:14;30.40;36.50
70820;DHT22;58439;51.046;13.692;2023-06-22T10:01:54;30.40;36.60
70820;DHT22;58439;51.046;13.692;2023-06-22T10:04:42;30.50;36.60
70820;DHT22;58439;51.046;13.692;2023-06-22T10:07:26;30.90;35.70
70820;DHT22;58439;51.046;13.692;2023-06-22T10:10:11;31.20;35.40
70820;DHT22;58439;51.046;13.692;2023-06-22T10:22:56;31.90;33.00
70820;DHT22;58439;51.046;13.692;2023-06-22T10:26:03;32.00;33.30
70820;DHT22;58439;51.046;13.692;2023-06-22T10:28:33;32.00;33.20
70820;DHT22;58439;51.046;13.692;2023-06-22T10:31:00;31.90;32.80
70820;DHT22;58439;51.046;13.692;2023-06-22T10:33:28;32.00;32.70
70820;DHT22;58439;51.046;13.692;2023-06-22T10:35:55;32.10;32.70
70820;DHT22;58439;51.046;13.692;2023-06-22T10:38:22;32.10;32.20
70820;DHT22;58439;51.046;13.692;2023-06-22T10:40:50;32.20;31.80
70820;DHT22;58439;51.046;13.692;2023-06-22T10:43:17;32.30;32.00
70820;DHT22;58439;51.046;13.692;2023-06-22T10:46:19;32.50;32.10
70820;DHT22;58439;51.046;13.692;2023-06-22T10:49:15;32.50;32.00
70820;DHT22;58439;51.046;13.692;2023-06-22T10:51:59;32.40;31.50
70820;DHT22;58439;51.046;13.692;2023-06-22T10:54:30;32.50;32.00
70820;DHT22;58439;51.046;13.692;2023-06-22T10:57:04;32.70;31.60
70820;DHT22;58439;51.046;13.692;2023-06-22T10:59:57;33.00;31.20
70820;DHT22;58439;51.046;13.692;2023-06-22T11:02:43;33.20;30.60
70820;DHT22;58439;51.046;13.692;2023-06-22T11:05:36;33.00;30.50
70820;DHT22;58439;51.046;13.692;2023-06-22T11:09:18;32.70;31.90
70820;DHT22;58439;51.046;13.692;2023-06-22T11:12:12;32.70;31.60
70820;DHT22;58439;51.046;13.692;2023-06-22T11:15:40;32.90;31.20
70820;DHT22;58439;51.046;13.692;2023-06-22T11:18:08;33.20;31.90
70820;DHT22;58439;51.046;13.692;2023-06-22T11:20:35;33.30;30.20
70820;DHT22;58439;51.046;13.692;2023-06-22T11:23:06;33.90;29.70
70820;DHT22;58439;51.046;13.692;2023-06-22T11:25:58;34.70;28.70
70820;DHT22;58439;51.046;13.692;2023-06-22T11:38:04;35.10;27.50
70820;DHT22;58439;51.046;13.692;2023-06-22T11:41:23;35.90;27.20
70820;DHT22;58439;51.046;13.692;2023-06-22T11:44:02;36.50;26.10
70820;DHT22;58439;51.046;13.692;2023-06-22T11:46:36;36.50;26.00
70820;DHT22;58439;51.046;13.692;2023-06-22T11:50:01;36.10;26.30
70820;DHT22;58439;51.046;13.692;2023-06-22T11:53:53;36.00;26.50
70820;DHT22;58439;51.046;13.692;2023-06-22T11:57:29;36.60;26.10
70820;DHT22;58439;51.046;13.692;2023-06-22T12:01:17;37.20;25.40
70820;DHT22;58439;51.046;13.692;2023-06-22T12:03:44;38.00;24.80
70820;DHT22;58439;51.046;13.692;2023-06-22T12:06:11;38.20;23.80
70820;DHT22;58439;51.046;13.692;2023-06-22T12:08:39;38.10;24.00
70820;DHT22;58439;51.046;13.692;2023-06-22T12:11:07;38.10;24.00
70820;DHT22;58439;51.046;13.692;2023-06-22T12:13:34;38.00;23.70
70820;DHT22;58439;51.046;13.692;2023-06-22T12:16:01;38.20;23.60
70820;DHT22;58439;51.046;13.692;2023-06-22T12:18:29;38.30;23.10
70820;DHT22;58439;51.046;13.692;2023-06-22T12:20:58;37.90;23.30
70820;DHT22;58439;51.046;13.692;2023-06-22T12:23:25;37.90;23.40
70820;DHT22;58439;51.046;13.692;2023-06-22T12:25:53;38.10;23.50
70820;DHT22;58439;51.046;13.692;2023-06-22T12:28:20;38.40;23.00
70820;DHT22;58439;51.046;13.692;2023-06-22T12:30:47;38.70;22.90
70820;DHT22;58439;51.046;13.692;2023-06-22T12:33:14;38.80;22.60
70820;DHT22;58439;51.046;13.692;2023-06-22T12:35:41;39.10;22.40
70820;DHT22;58439;51.046;13.692;2023-06-22T12:38:08;39.30;22.30
70820;DHT22;58439;51.046;13.692;2023-06-22T12:40:36;39.50;21.40
70820;DHT22;58439;51.046;13.692;2023-06-22T12:43:03;39.60;21.50
70820;DHT22;58439;51.046;13.692;2023-06-22T12:45:30;39.70;21.20
70820;DHT22;58439;51.046;13.692;2023-06-22T12:48:00;39.70;21.30
70820;DHT22;58439;51.046;13.692;2023-06-22T12:50:28;39.60;21.70
70820;DHT22;58439;51.046;13.692;2023-06-22T12:52:55;39.50;21.50
70820;DHT22;58439;51.046;13.692;2023-06-22T12:55:23;39.70;21.40
70820;DHT22;58439;51.046;13.692;2023-06-22T12:57:53;39.90;21.20
70820;DHT22;58439;51.046;13.692;2023-06-22T13:04:07;39.50;21.00
70820;DHT22;58439;51.046;13.692;2023-06-22T13:06:35;39.20;21.40
70820;DHT22;58439;51.046;13.692;2023-06-22T13:09:02;39.20;21.30
70820;DHT22;58439;51.046;13.692;2023-06-22T13:11:34;39.30;21.40
70820;DHT22;58439;51.046;13.692;2023-06-22T13:14:02;39.50;21.20
70820;DHT22;58439;51.046;13.692;2023-06-22T13:16:32;39.80;21.10
70820;DHT22;58439;51.046;13.692;2023-06-22T13:19:00;40.00;20.80
70820;DHT22;58439;51.046;13.692;2023-06-22T13:21:27;40.20;20.60
70820;DHT22;58439;51.046;13.692;2023-06-22T13:23:54;40.40;20.40
70820;DHT22;58439;51.046;13.692;2023-06-22T13:26:22;40.60;20.10
70820;DHT22;58439;51.046;13.692;2023-06-22T13:28:49;40.60;20.10
70820;DHT22;58439;51.046;13.692;2023-06-22T13:31:16;40.70;20.20
70820;DHT22;58439;51.046;13.692;2023-06-22T13:33:44;40.80;20.20
70820;DHT22;58439;51.046;13.692;2023-06-22T13:36:15;40.60;20.00
70820;DHT22;58439;51.046;13.692;2023-06-22T13:41:44;40.10;20.60
70820;DHT22;58439;51.046;13.692;2023-06-22T13:44:12;40.40;20.40
70820;DHT22;58439;51.046;13.692;2023-06-22T13:47:03;40.60;20.00
70820;DHT22;58439;51.046;13.692;2023-06-22T13:49:44;40.70;20.10
70820;DHT22;58439;51.046;13.692;2023-06-22T13:52:16;40.80;19.80
70820;DHT22;58439;51.046;13.692;2023-06-22T13:54:51;40.70;19.80
70820;DHT22;58439;51.046;13.692;2023-06-22T13:57:45;40.50;19.80
70820;DHT22;58439;51.046;13.692;2023-06-22T14:00:18;40.50;19.90
70820;DHT22;58439;51.046;13.692;2023-06-22T14:05:56;40.60;20.00
70820;DHT22;58439;51.046;13.692;2023-06-22T14:08:30;40.40;20.60
70820;DHT22;58439;51.046;13.692;2023-06-22T14:11:08;40.50;20.50
70820;DHT22;58439;51.046;13.692;2023-06-22T14:14:02;40.80;20.30
70820;DHT22;58439;51.046;13.692;2023-06-22T14:27:24;40.20;20.70
70820;DHT22;58439;51.046;13.692;2023-06-22T14:46:10;39.90;21.10
70820;DHT22;58439;51.046;13.692;2023-06-22T14:50:11;40.40;19.70
70820;DHT22;58439;51.046;13.692;2023-06-22T14:53:26;40.70;19.80
70820;DHT22;58439;51.046;13.692;2023-06-22T15:05:39;41.00;19.40
70820;DHT22;58439;51.046;13.692;2023-06-22T15:09:41;40.80;20.10
70820;DHT22;58439;51.046;13.692;2023-06-22T15:13:38;40.50;20.70
70820;DHT22;58439;51.046;13.692;2023-06-22T15:59:31;38.10;23.30
70820;DHT22;58439;51.046;13.692;2023-06-22T16:02:18;38.20;23.20
70820;DHT22;58439;51.046;13.692;2023-06-22T16:04:47;37.90;23.60
70820;DHT22;58439;51.046;13.692;2023-06-22T16:07:15;37.50;23.90
70820;DHT22;58439;51.046;13.692;2023-06-22T16:10:21;37.10;24.30
70820;DHT22;58439;51.046;13.692;2023-06-22T16:13:23;36.40;25.20
70820;DHT22;58439;51.046;13.692;2023-06-22T16:26:57;37.00;25.10
70820;DHT22;58439;51.046;13.692;2023-06-22T16:42:22;34.00;29.10
70820;DHT22;58439;51.046;13.692;2023-06-22T16:44:55;33.90;29.50
70820;DHT22;58439;51.046;13.692;2023-06-22T16:47:25;34.30;29.30
70820;DHT22;58439;51.046;13.692;2023-06-22T16:50:05;34.80;28.80
70820;DHT22;58439;51.046;13.692;2023-06-22T16:52:44;35.10;28.30
70820;DHT22;58439;51.046;13.692;2023-06-22T16:55:13;35.40;28.20
70820;DHT22;58439;51.046;13.692;2023-06-22T16:57:41;35.50;28.00
70820;DHT22;58439;51.046;13.692;2023-06-22T17:00:13;35.50;27.90
70820;DHT22;58439;51.046;13.692;2023-06-22T17:02:52;35.20;28.10
70820;DHT22;58439;51.046;13.692;2023-06-22T17:05:26;35.10;28.30
70820;DHT22;58439;51.046;13.692;2023-06-22T17:08:29;35.10;28.40
70820;DHT22;58439;51.046;13.692;2023-06-22T17:11:43;35.20;28.40
70820;DHT22;58439;51.046;13.692;2023-06-22T17:14:33;35.50;28.20
70820;DHT22;58439;51.046;13.692;2023-06-22T17:18:16;35.50;28.10
70820;DHT22;58439;51.046;13.692;2023-06-22T17:20:45;35.20;28.50
70820;DHT22;58439;51.046;13.692;2023-06-22T17:23:13;35.00;28.80
70820;DHT22;58439;51.046;13.692;2023-06-22T17:25:41;34.90;29.00
70820;DHT22;58439;51.046;13.692;2023-06-22T17:28:10;34.80;29.10
70820;DHT22;58439;51.046;13.692;2023-06-22T17:30:37;34.80;29.10
70820;DHT22;58439;51.046;13.692;2023-06-22T17:33:08;34.60;29.20
70820;DHT22;58439;51.046;13.692;2023-06-22T17:36:04;34.30;29.90
70820;DHT22;58439;51.046;13.692;2023-06-22T17:41:55;33.90;30.40
70820;DHT22;58439;51.046;13.692;2023-06-22T17:44:24;33.40;31.50
70820;DHT22;58439;51.046;13.692;2023-06-22T17:46:57;33.00;32.40
70820;DHT22;58439;51.046;13.692;2023-06-22T17:49:28;32.50;33.30
70820;DHT22;58439;51.046;13.692;2023-06-22T17:51:56;32.00;34.50
70820;DHT22;58439;51.046;13.692;2023-06-22T17:54:29;31.60;35.20
70820;DHT22;58439;51.046;13.692;2023-06-22T17:57:20;31.40;35.90
70820;DHT22;58439;51.046;13.692;2023-06-22T17:59:49;31.10;36.50
70820;DHT22;58439;51.046;13.692;2023-06-22T18:02:23;30.90;37.20
70820;DHT22;58439;51.046;13.692;2023-06-22T18:05:02;30.60;37.80
70820;DHT22;58439;51.046;13.692;2023-06-22T18:07:33;30.40;38.40
70820;DHT22;58439;51.046;13.692;2023-06-22T18:10:04;30.30;39.10
70820;DHT22;58439;51.046;13.692;2023-06-22T18:12:35;30.10;39.50
70820;DHT22;58439;51.046;13.692;2023-06-22T18:15:04;30.00;40.00
70820;DHT22;58439;51.046;13.692;2023-06-22T18:17:32;29.80;40.60
70820;DHT22;58439;51.046;13.692;2023-06-22T18:20:03;29.70;41.00
70820;DHT22;58439;51.046;13.692;2023-06-22T18:22:32;29.60;42.80
70820;DHT22;58439;51.046;13.692;2023-06-22T18:25:01;29.50;41.80
70820;DHT22;58439;51.046;13.692;2023-06-22T18:27:30;29.40;42.30
70820;DHT22;58439;51.046;13.692;2023-06-22T18:30:03;29.40;42.50
70820;DHT22;58439;51.046;13.692;2023-06-22T18:32:30;29.30;42.80
70820;DHT22;58439;51.046;13.692;2023-06-22T18:34:58;29.30;43.30
70820;DHT22;58439;51.046;13.692;2023-06-22T18:37:30;29.20;43.60
70820;DHT22;58439;51.046;13.692;2023-06-22T18:40:00;29.10;44.20
70820;DHT22;58439;51.046;13.692;2023-06-22T18:42:33;29.00;44.60